CheckWX is a tool to help pilots better visualize weather data.  It is not intended as a substitute for an official pre-flight weather briefing.

21:02:05 UTC

KIBM METAR
Kimball Municipal / Robert E Arraj Field Airport
Kimball, Nebraska, USA
Current

7 mins ago

KIBM 232055Z AUTO 12012G20KT 10SM SCT037 SCT050 BKN070 12/02 A2998 RMK AO2 T01240021
Observed
May-23 @ 20:55 UTC
Wind
  • 120° at 12 KTS
  • Gusting to 20 KTS
Visibility
10 SM
Flight Rules
VFR
Cloud Levels
  • Scattered at 3,700' AGL
  • Scattered at 5,000' AGL
  • Broken at 7,000' AGL
Temperature
12°C / 54°F
Dewpoint
C / 36°F
Humidity
51%
Altimeter
29.98" Hg
Pressure
1015.22 hPa
Previous

27 mins ago

KIBM 232035Z AUTO 13014KT 10SM SCT039 BKN050 OVC070 12/02 A3000 RMK AO2 T01210023
Observed
May-23 @ 20:35 UTC
Wind
  • 130° at 14 KTS
Visibility
10 SM
Flight Rules
VFR
Cloud Levels
  • Scattered at 3,900' AGL
  • Broken at 5,000' AGL
  • Overcast at 7,000' AGL
Temperature
12°C / 54°F
Dewpoint
C / 36°F
Humidity
51%
Altimeter
30" Hg
Pressure
1015.92 hPa
Previous

2 hours ago

KIBM 231915Z AUTO 15013KT 10SM OVC044 12/03 A3005 RMK AO2 T01150027
Observed
May-23 @ 19:15 UTC
Wind
  • 150° at 13 KTS
Visibility
10 SM
Flight Rules
VFR
Cloud Levels
  • Overcast at 4,400' AGL
Temperature
12°C / 54°F
Dewpoint
C / 37°F
Humidity
54%
Altimeter
30.05" Hg
Pressure
1017.62 hPa